Time;durP1;ratioP1;P1;durP2;ratioP2;P2;SDS_P1;SDS_P2;PMS_P1;PMS_P2;Temp;Humidity;BMP_temperature;BMP_pressure;BME280_temperature;BME280_humidity;BME280_pressure;Samples;Min_cycle;Max_cycle;Signal;HPM_P1;HPM_P2
2021/06/22 00:00:30;;;;;;;3.80;2.60;;;21.50;79.20;;;;;;5092772;28;20247;-90
2021/06/22 00:02:56;;;;;;;2.60;2.40;;;21.10;79.60;;;;;;5094285;28;20217;-90
2021/06/22 00:05:23;;;;;;;2.63;2.42;;;21.00;80.90;;;;;;5091678;28;20183;-90
2021/06/22 00:07:51;;;;;;;4.18;2.30;;;21.30;80.80;;;;;;5065018;28;20185;-89
2021/06/22 00:10:19;;;;;;;2.63;2.42;;;21.50;79.20;;;;;;5026076;28;20199;-89
2021/06/22 00:12:45;;;;;;;2.70;2.20;;;21.80;78.50;;;;;;5060119;28;20172;-89
2021/06/22 00:15:14;;;;;;;4.82;2.33;;;21.80;78.20;;;;;;5042299;28;20322;-89
2021/06/22 00:17:40;;;;;;;3.53;2.40;;;21.80;77.60;;;;;;5042450;28;20675;-89
2021/06/22 00:20:08;;;;;;;4.65;2.50;;;21.80;77.20;;;;;;5042274;28;20176;-89
2021/06/22 00:22:34;;;;;;;3.55;2.55;;;21.90;76.80;;;;;;5041658;28;20198;-89
2021/06/22 00:25:00;;;;;;;3.30;2.30;;;21.90;76.80;;;;;;5025496;28;20287;-89
2021/06/22 00:27:25;;;;;;;2.55;2.35;;;21.50;78.20;;;;;;5041691;28;20293;-90
2021/06/22 00:29:51;;;;;;;2.70;2.30;;;21.60;78.50;;;;;;5059654;28;20586;-88
2021/06/22 00:32:18;;;;;;;2.67;2.47;;;21.60;78.00;;;;;;5059168;28;20179;-89
2021/06/22 00:34:45;;;;;;;3.05;2.47;;;21.60;78.20;;;;;;5059054;28;20199;-89
2021/06/22 00:37:14;;;;;;;3.80;2.60;;;21.30;80.30;;;;;;5058195;28;20177;-88
2021/06/22 00:39:40;;;;;;;2.63;2.42;;;21.00;81.60;;;;;;5058254;28;20214;-89
2021/06/22 00:42:06;;;;;;;2.70;2.50;;;21.00;81.30;;;;;;5059337;28;20188;-89
2021/06/22 00:44:31;;;;;;;2.70;2.50;;;21.10;80.90;;;;;;5059731;28;20217;-89
2021/06/22 00:46:57;;;;;;;2.53;2.25;;;21.30;80.10;;;;;;5059600;28;20183;-89
2021/06/22 00:49:23;;;;;;;2.67;2.47;;;21.50;79.20;;;;;;5024755;28;20188;-89
2021/06/22 00:51:48;;;;;;;2.70;2.50;;;21.70;79.10;;;;;;5058632;28;20199;-89
2021/06/22 00:54:14;;;;;;;2.88;2.38;;;21.80;78.20;;;;;;5061097;28;20211;-89
2021/06/22 00:56:40;;;;;;;3.25;2.22;;;21.80;77.80;;;;;;5060363;28;20185;-90
2021/06/22 00:59:06;;;;;;;4.32;2.65;;;21.90;77.50;;;;;;5042118;28;20196;-89
2021/06/22 01:01:32;;;;;;;5.70;3.08;;;22.00;77.00;;;;;;5059076;28;20177;-89
2021/06/22 01:03:57;;;;;;;2.95;2.65;;;21.80;77.30;;;;;;5043090;28;20243;-90
2021/06/22 01:06:23;;;;;;;2.63;2.42;;;21.80;77.70;;;;;;5059798;28;20180;-90
2021/06/22 01:08:50;;;;;;;2.95;2.50;;;21.80;78.20;;;;;;5059244;28;20188;-90
2021/06/22 01:11:16;;;;;;;4.25;2.80;;;21.60;78.90;;;;;;5042024;28;20194;-90
2021/06/22 01:13:43;;;;;;;4.68;2.33;;;21.50;79.00;;;;;;5042998;28;20239;-89
2021/06/22 01:16:26;;;;;;;2.90;2.70;;;21.60;79.00;;;;;;5060511;28;20181;-89
2021/06/22 01:19:04;;;;;;;2.97;2.70;;;21.80;77.60;;;;;;5059169;28;20297;-90
2021/06/22 01:21:31;;;;;;;4.07;2.70;;;21.80;77.00;;;;;;5059717;28;20215;-89
2021/06/22 01:24:09;;;;;;;2.60;2.40;;;21.70;77.90;;;;;;5042994;28;20200;-89
2021/06/22 01:26:36;;;;;;;3.47;2.65;;;21.70;78.00;;;;;;5063122;28;20234;-89
2021/06/22 01:29:04;;;;;;;6.05;2.88;;;21.70;78.00;;;;;;5064222;28;20520;-90
2021/06/22 01:31:30;;;;;;;2.75;2.55;;;21.70;77.90;;;;;;5046268;28;20188;-89
2021/06/22 01:33:56;;;;;;;3.83;2.70;;;21.50;78.40;;;;;;5045488;28;20349;-90
2021/06/22 01:36:21;;;;;;;2.95;2.50;;;21.50;78.50;;;;;;5064458;28;20277;-89
2021/06/22 01:38:48;;;;;;;3.88;2.70;;;21.40;78.80;;;;;;5046177;28;20283;-90
2021/06/22 01:41:15;;;;;;;4.72;3.20;;;21.30;79.20;;;;;;5063922;28;20176;-90
2021/06/22 01:43:41;;;;;;;3.03;2.75;;;21.20;79.10;;;;;;5062990;28;20200;-90
2021/06/22 01:46:06;;;;;;;2.95;2.72;;;21.10;79.40;;;;;;5063281;28;20220;-90
2021/06/22 01:48:32;;;;;;;4.53;3.00;;;21.20;79.40;;;;;;5063085;28;20176;-90
2021/06/22 01:50:58;;;;;;;5.30;2.67;;;21.30;78.60;;;;;;5063812;28;20185;-90
2021/06/22 01:53:25;;;;;;;3.20;2.90;;;20.90;80.90;;;;;;5063475;28;20208;-90
2021/06/22 01:55:51;;;;;;;2.92;2.72;;;20.70;81.50;;;;;;5083267;28;20689;-90
2021/06/22 01:58:19;;;;;;;3.70;2.78;;;20.90;80.60;;;;;;5048686;28;20214;-89
2021/06/22 02:00:47;;;;;;;3.45;3.15;;;21.10;80.00;;;;;;5075898;28;20176;-90
2021/06/22 02:03:15;;;;;;;4.95;3.22;;;21.00;79.60;;;;;;5044440;28;20222;-89
2021/06/22 02:05:41;;;;;;;3.92;2.95;;;21.00;80.50;;;;;;5045049;28;20709;-89
2021/06/22 02:08:07;;;;;;;6.03;3.10;;;21.10;80.20;;;;;;5044944;28;20194;-90
2021/06/22 02:10:33;;;;;;;3.97;2.90;;;21.20;79.20;;;;;;5045599;28;20214;-90
2021/06/22 02:12:59;;;;;;;3.67;3.38;;;21.20;79.70;;;;;;5062765;28;20203;-90
2021/06/22 02:15:24;;;;;;;6.63;4.72;;;21.20;79.50;;;;;;5045113;28;20189;-89
2021/06/22 02:17:50;;;;;;;5.82;5.22;;;21.10;79.20;;;;;;5043757;28;20256;-89
2021/06/22 02:20:16;;;;;;;5.30;4.85;;;20.80;81.20;;;;;;5045110;28;20211;-89
2021/06/22 02:22:42;;;;;;;6.88;6.28;;;20.60;82.10;;;;;;5063437;28;20179;-89
2021/06/22 02:25:09;;;;;;;9.35;8.25;;;20.40;82.70;;;;;;5063119;28;20186;-89
2021/06/22 02:27:35;;;;;;;9.80;9.00;;;20.30;83.30;;;;;;5063401;28;20177;-89
2021/06/22 02:30:09;;;;;;;10.27;9.40;;;20.00;84.00;;;;;;5025097;28;20280;-89
2021/06/22 02:32:38;;;;;;;10.85;9.98;;;19.80;85.20;;;;;;5052118;28;20180;-89
2021/06/22 02:35:06;;;;;;;9.77;9.07;;;19.90;85.30;;;;;;5062843;28;20250;-89
2021/06/22 02:37:32;;;;;;;10.65;9.65;;;19.80;85.80;;;;;;5047140;28;20195;-89
2021/06/22 02:39:57;;;;;;;12.30;11.25;;;19.90;85.30;;;;;;5052502;28;20184;-88
2021/06/22 02:42:23;;;;;;;12.00;11.10;;;19.90;85.30;;;;;;5072491;28;20164;-91
2021/06/22 02:44:49;;;;;;;12.23;11.15;;;19.80;85.80;;;;;;5060252;28;20200;-90
2021/06/22 02:47:15;;;;;;;12.80;11.70;;;19.80;85.80;;;;;;5067926;28;20215;-88
2021/06/22 02:49:40;;;;;;;13.55;12.18;;;19.80;85.00;;;;;;5028959;28;20602;-89
2021/06/22 02:52:07;;;;;;;14.02;12.70;;;19.60;85.60;;;;;;5037838;28;20192;-90
2021/06/22 02:54:37;;;;;;;14.15;12.95;;;19.50;86.20;;;;;;5076918;28;20200;-90
2021/06/22 02:57:04;;;;;;;15.15;13.75;;;19.60;86.00;;;;;;5069862;28;20157;-88
2021/06/22 02:59:30;;;;;;;13.30;12.07;;;19.70;85.00;;;;;;5042603;28;20205;-90
2021/06/22 03:01:56;;;;;;;12.85;11.75;;;19.80;85.40;;;;;;5042998;28;20575;-88
2021/06/22 03:04:21;;;;;;;14.27;13.18;;;19.90;84.00;;;;;;5059385;28;20218;-90
2021/06/22 03:06:47;;;;;;;13.70;12.60;;;20.10;82.60;;;;;;5062466;28;20539;-88
2021/06/22 03:09:12;;;;;;;14.50;13.27;;;20.00;82.90;;;;;;5045614;28;20181;-88
2021/06/22 03:11:38;;;;;;;14.50;13.30;;;20.00;82.90;;;;;;5062581;28;20205;-88
2021/06/22 03:14:04;;;;;;;14.93;13.60;;;19.80;83.70;;;;;;5063018;28;20672;-87
2021/06/22 03:16:30;;;;;;;14.70;13.30;;;19.70;83.80;;;;;;5062629;28;20184;-88
2021/06/22 03:18:55;;;;;;;14.32;13.02;;;19.60;85.30;;;;;;5062370;28;20208;-88
2021/06/22 03:21:21;;;;;;;16.20;14.85;;;19.60;84.20;;;;;;5063470;28;20187;-89
2021/06/22 03:23:48;;;;;;;15.20;13.88;;;19.50;85.00;;;;;;5062202;28;20212;-88
2021/06/22 03:26:15;;;;;;;15.38;13.98;;;19.30;85.20;;;;;;5040723;28;20552;-88
2021/06/22 03:28:40;;;;;;;14.77;13.48;;;19.30;85.90;;;;;;5059613;28;20183;-88
2021/06/22 03:31:06;;;;;;;15.43;14.13;;;19.40;86.20;;;;;;5026220;28;20200;-88
2021/06/22 03:33:32;;;;;;;14.63;13.38;;;19.60;84.80;;;;;;5061738;28;20209;-89
2021/06/22 03:35:57;;;;;;;13.35;12.32;;;19.80;83.80;;;;;;5063393;28;20195;-88
2021/06/22 03:38:23;;;;;;;14.90;13.60;;;20.00;83.40;;;;;;5061896;28;20230;-88
2021/06/22 03:40:49;;;;;;;14.75;13.40;;;20.00;82.80;;;;;;5061799;28;20208;-87
2021/06/22 03:43:14;;;;;;;15.35;14.15;;;20.00;82.90;;;;;;5058939;28;20625;-88
2021/06/22 03:45:40;;;;;;;15.38;14.18;;;20.00;81.90;;;;;;5060510;28;20177;-88
2021/06/22 03:48:09;;;;;;;16.17;14.77;;;19.80;84.00;;;;;;5042973;28;20215;-88
2021/06/22 03:50:35;;;;;;;15.52;14.23;;;20.00;82.70;;;;;;5061180;28;20203;-88
2021/06/22 03:53:01;;;;;;;14.55;13.25;;;20.00;81.50;;;;;;5070782;28;20207;-87
2021/06/22 03:55:27;;;;;;;14.68;13.27;;;20.00;82.70;;;;;;5079516;28;20216;-88
2021/06/22 03:57:55;;;;;;;14.48;13.05;;;20.10;82.40;;;;;;5062384;28;20234;-88
2021/06/22 04:00:22;;;;;;;13.85;12.70;;;20.10;81.60;;;;;;5080097;28;20322;-89
2021/06/22 04:02:50;;;;;;;11.82;10.93;;;20.10;81.10;;;;;;5081050;28;20196;-88
2021/06/22 04:05:17;;;;;;;13.68;12.32;;;20.20;80.90;;;;;;5080529;28;20170;-88
2021/06/22 04:07:43;;;;;;;12.15;11.15;;;20.30;80.50;;;;;;5081920;28;20212;-88
2021/06/22 04:10:09;;;;;;;11.45;10.55;;;20.30;79.50;;;;;;5081420;28;20252;-88
2021/06/22 04:12:35;;;;;;;12.05;10.95;;;20.10;79.20;;;;;;5052117;28;20247;-88
2021/06/22 04:15:02;;;;;;;11.13;10.13;;;20.00;80.40;;;;;;5042781;28;20200;-89
2021/06/22 04:17:28;;;;;;;11.57;10.57;;;19.60;80.50;;;;;;5042694;28;20274;-88
2021/06/22 04:19:53;;;;;;;10.55;9.65;;;19.60;81.20;;;;;;5042234;28;20285;-88
2021/06/22 04:22:19;;;;;;;12.07;10.93;;;19.50;82.10;;;;;;5060825;28;20173;-88
2021/06/22 04:24:45;;;;;;;10.88;9.90;;;19.40;82.50;;;;;;5058173;28;20282;-88
2021/06/22 04:27:11;;;;;;;11.35;10.35;;;19.40;82.90;;;;;;5060495;28;20182;-88
2021/06/22 04:29:37;;;;;;;11.10;10.10;;;19.50;81.70;;;;;;5040972;28;20188;-88
2021/06/22 04:32:03;;;;;;;11.15;10.25;;;19.30;82.90;;;;;;5059222;28;20214;-89
2021/06/22 04:34:29;;;;;;;11.15;10.25;;;19.30;83.60;;;;;;5053957;28;20231;-89
2021/06/22 04:36:55;;;;;;;12.32;11.07;;;19.40;82.70;;;;;;5057281;28;20196;-89
2021/06/22 04:39:21;;;;;;;11.50;10.57;;;19.30;82.60;;;;;;5053117;28;20282;-88
2021/06/22 04:41:46;;;;;;;11.73;10.65;;;19.10;83.50;;;;;;5042363;28;20655;-88
2021/06/22 04:44:12;;;;;;;11.00;9.93;;;19.10;83.70;;;;;;5047261;28;20219;-88
2021/06/22 04:46:38;;;;;;;12.52;11.32;;;19.20;83.30;;;;;;5047580;28;20214;-88
2021/06/22 04:49:03;;;;;;;11.15;10.23;;;19.30;82.70;;;;;;5038822;28;20185;-88
2021/06/22 04:51:30;;;;;;;11.55;10.60;;;19.20;82.90;;;;;;5062607;28;20195;-88
2021/06/22 04:53:55;;;;;;;11.63;10.68;;;19.30;82.90;;;;;;5056730;28;20212;-88
2021/06/22 04:56:22;;;;;;;11.25;10.25;;;19.20;83.20;;;;;;5046641;28;20191;-88
2021/06/22 04:58:50;;;;;;;11.35;10.05;;;19.10;83.80;;;;;;5025162;28;20199;-87
2021/06/22 05:01:15;;;;;;;11.23;10.25;;;19.30;84.20;;;;;;5044845;28;20177;-88
2021/06/22 05:03:41;;;;;;;11.40;10.50;;;19.30;81.90;;;;;;5045313;28;20223;-88
2021/06/22 05:06:07;;;;;;;11.50;10.60;;;19.50;82.30;;;;;;5061675;28;20185;-88
2021/06/22 05:08:33;;;;;;;11.57;10.65;;;19.60;81.90;;;;;;5063448;28;20217;-87
2021/06/22 05:10:59;;;;;;;10.93;10.02;;;19.60;80.80;;;;;;5058090;28;20191;-88
2021/06/22 05:13:25;;;;;;;10.25;9.40;;;19.40;81.50;;;;;;5053700;28;20196;-88
2021/06/22 05:15:51;;;;;;;10.13;9.32;;;19.40;82.20;;;;;;5061766;28;20208;-86
2021/06/22 05:18:17;;;;;;;11.18;10.05;;;19.60;82.60;;;;;;5043005;28;20207;-86
2021/06/22 05:20:43;;;;;;;11.15;10.25;;;19.60;81.40;;;;;;5036213;28;20234;-86
2021/06/22 05:23:08;;;;;;;10.00;9.20;;;19.60;81.00;;;;;;5044816;28;20242;-88
2021/06/22 05:25:34;;;;;;;10.77;9.88;;;19.50;81.40;;;;;;5064641;28;20205;-87
2021/06/22 05:28:00;;;;;;;10.73;9.77;;;19.60;81.40;;;;;;5079552;28;20278;-87
2021/06/22 05:30:25;;;;;;;10.40;9.60;;;19.60;81.20;;;;;;5072335;28;20217;-87
2021/06/22 05:32:51;;;;;;;11.30;10.30;;;19.40;81.40;;;;;;5054524;28;20184;-87
2021/06/22 05:35:17;;;;;;;10.50;9.50;;;19.30;82.50;;;;;;5077187;28;20202;-90
2021/06/22 05:37:42;;;;;;;9.65;8.73;;;19.40;82.20;;;;;;5079624;28;20225;-88
2021/06/22 05:40:09;;;;;;;9.88;9.00;;;19.60;82.10;;;;;;5043745;28;20278;-86
2021/06/22 05:42:35;;;;;;;10.48;9.48;;;19.60;80.70;;;;;;5025570;28;20197;-86
2021/06/22 05:45:02;;;;;;;10.45;9.45;;;19.70;81.30;;;;;;5067143;28;20295;-85
2021/06/22 05:47:28;;;;;;;11.57;10.50;;;19.70;81.30;;;;;;5073037;28;20196;-87
2021/06/22 05:49:53;;;;;;;11.32;10.18;;;19.70;81.10;;;;;;5057504;28;20203;-87
2021/06/22 05:52:19;;;;;;;11.77;10.65;;;19.60;81.60;;;;;;5061690;28;20184;-87
2021/06/22 05:54:46;;;;;;;10.43;9.55;;;19.50;82.00;;;;;;5061342;28;20210;-87
2021/06/22 05:57:11;;;;;;;10.35;9.30;;;19.50;82.60;;;;;;5037204;28;20187;-88
2021/06/22 05:59:37;;;;;;;10.98;9.85;;;19.50;82.50;;;;;;5064081;28;20204;-87
2021/06/22 06:02:03;;;;;;;12.50;10.57;;;19.70;82.50;;;;;;5036649;28;20195;-87
2021/06/22 06:04:29;;;;;;;10.60;9.50;;;19.60;81.70;;;;;;5063368;28;20281;-88
2021/06/22 06:06:58;;;;;;;11.38;10.18;;;19.80;81.50;;;;;;5057207;28;20176;-88
2021/06/22 06:09:24;;;;;;;13.30;10.35;;;19.80;80.60;;;;;;5056905;28;20184;-88
2021/06/22 06:11:51;;;;;;;16.83;14.40;;;19.80;80.70;;;;;;5061548;28;20185;-88
2021/06/22 06:14:17;;;;;;;16.63;13.23;;;19.40;81.50;;;;;;5054809;28;20235;-89
2021/06/22 06:16:43;;;;;;;14.50;12.88;;;19.40;82.70;;;;;;5049194;28;20195;-88
2021/06/22 06:19:08;;;;;;;15.95;13.98;;;19.50;82.20;;;;;;5046254;28;20210;-88
2021/06/22 06:21:36;;;;;;;14.55;13.02;;;19.40;82.10;;;;;;5055418;28;20212;-87
2021/06/22 06:24:02;;;;;;;16.77;13.88;;;19.40;82.90;;;;;;5051163;28;20223;-88
2021/06/22 06:26:32;;;;;;;16.75;15.05;;;19.30;84.10;;;;;;5040560;28;20197;-88
2021/06/22 06:29:06;;;;;;;18.70;14.50;;;19.10;85.30;;;;;;5046068;28;21293;-87
2021/06/22 06:31:32;;;;;;;17.08;14.70;;;19.20;86.60;;;;;;5027919;28;20202;-87
2021/06/22 06:33:58;;;;;;;16.48;14.75;;;19.40;86.80;;;;;;5052727;28;20216;-87
2021/06/22 06:36:23;;;;;;;16.30;14.73;;;19.40;85.40;;;;;;5058931;28;20734;-87
2021/06/22 06:38:50;;;;;;;14.25;12.38;;;19.40;86.10;;;;;;5046696;28;20266;-89
2021/06/22 06:41:16;;;;;;;17.25;14.90;;;19.30;86.80;;;;;;5057271;28;20566;-88
2021/06/22 06:43:41;;;;;;;16.70;15.00;;;19.40;86.30;;;;;;5060907;28;20203;-88
2021/06/22 06:46:07;;;;;;;18.15;16.15;;;19.50;87.10;;;;;;5045303;28;20188;-88
2021/06/22 06:48:33;;;;;;;18.73;16.33;;;19.50;85.70;;;;;;5056323;28;20671;-88
2021/06/22 06:50:59;;;;;;;20.02;16.88;;;19.40;86.30;;;;;;5051119;28;20185;-88
2021/06/22 06:53:25;;;;;;;17.83;16.02;;;19.30;87.30;;;;;;5047710;28;20233;-88
2021/06/22 06:55:50;;;;;;;17.98;16.25;;;19.20;87.60;;;;;;5043111;28;20195;-88
2021/06/22 06:58:16;;;;;;;17.13;15.40;;;19.30;87.20;;;;;;5051794;28;20332;-88
2021/06/22 07:00:43;;;;;;;17.25;15.57;;;19.30;86.20;;;;;;5058612;28;20672;-88
2021/06/22 07:03:09;;;;;;;17.83;15.95;;;19.50;87.00;;;;;;5051186;28;20219;-88
2021/06/22 07:05:35;;;;;;;16.25;14.10;;;19.30;87.50;;;;;;5061025;28;20190;-88
2021/06/22 07:08:01;;;;;;;14.85;13.55;;;19.30;88.20;;;;;;5067423;28;20183;-88
2021/06/22 07:10:28;;;;;;;16.25;14.82;;;19.40;86.40;;;;;;5070716;28;20776;-88
2021/06/22 07:12:56;;;;;;;14.68;13.27;;;19.60;86.00;;;;;;5056802;28;20195;-88
2021/06/22 07:15:22;;;;;;;15.00;13.55;;;19.40;87.80;;;;;;5058221;28;20567;-88
2021/06/22 07:17:48;;;;;;;14.32;12.90;;;19.40;87.20;;;;;;5061196;28;20735;-88
2021/06/22 07:20:15;;;;;;;14.10;12.70;;;19.40;87.50;;;;;;5051326;28;20198;-87
2021/06/22 07:22:41;;;;;;;14.80;12.85;;;19.30;88.40;;;;;;5043841;28;20591;-88
2021/06/22 07:25:07;;;;;;;13.65;12.25;;;19.40;87.80;;;;;;5055498;28;20662;-88
2021/06/22 07:27:33;;;;;;;14.48;13.18;;;19.50;88.60;;;;;;5051889;28;20177;-88
2021/06/22 07:30:00;;;;;;;13.35;12.23;;;19.50;88.60;;;;;;5058191;28;20335;-88
2021/06/22 07:32:26;;;;;;;12.55;11.50;;;19.50;87.80;;;;;;5048941;28;20189;-88
2021/06/22 07:34:52;;;;;;;11.18;10.23;;;19.60;87.40;;;;;;5066271;28;20201;-88
2021/06/22 07:37:17;;;;;;;10.18;9.38;;;19.70;87.40;;;;;;5077698;28;20188;-88
2021/06/22 07:39:43;;;;;;;10.23;9.13;;;19.80;86.80;;;;;;5038427;28;20234;-88
2021/06/22 07:42:09;;;;;;;9.20;8.40;;;19.70;85.60;;;;;;5045801;28;20195;-88
2021/06/22 07:44:35;;;;;;;9.20;8.30;;;19.60;86.40;;;;;;5069367;28;20193;-88
2021/06/22 07:47:00;;;;;;;8.15;7.53;;;19.70;85.10;;;;;;5047137;28;20182;-88
2021/06/22 07:49:26;;;;;;;8.23;7.55;;;19.70;85.40;;;;;;5037074;28;20203;-88
2021/06/22 07:51:52;;;;;;;8.25;7.47;;;19.70;85.70;;;;;;5029008;28;20196;-88
2021/06/22 07:54:18;;;;;;;10.40;8.30;;;19.80;85.80;;;;;;5055203;28;20291;-87
2021/06/22 07:56:44;;;;;;;8.70;7.90;;;19.80;85.80;;;;;;5059173;28;20228;-88
2021/06/22 07:59:09;;;;;;;7.90;7.20;;;19.90;85.30;;;;;;5066909;28;20209;-88
2021/06/22 08:01:35;;;;;;;8.68;7.88;;;20.00;85.10;;;;;;5062080;28;20277;-87
2021/06/22 08:04:01;;;;;;;7.57;6.93;;;19.90;84.30;;;;;;5041599;28;20227;-88
2021/06/22 08:06:26;;;;;;;7.35;6.68;;;19.80;84.40;;;;;;5058611;28;20318;-88
2021/06/22 08:08:52;;;;;;;8.25;7.47;;;19.90;85.30;;;;;;5061902;28;20207;-88
2021/06/22 08:11:18;;;;;;;7.43;6.82;;;20.00;84.20;;;;;;5057158;28;20191;-88
2021/06/22 08:13:43;;;;;;;7.70;7.10;;;20.00;83.50;;;;;;5041488;28;20238;-88
2021/06/22 08:16:09;;;;;;;8.57;7.78;;;20.00;83.50;;;;;;5058598;28;20215;-88
2021/06/22 08:18:35;;;;;;;8.32;7.68;;;19.90;85.10;;;;;;5065896;28;20215;-88
2021/06/22 08:21:03;;;;;;;8.80;7.85;;;19.90;84.00;;;;;;5063513;28;20195;-88
2021/06/22 08:23:29;;;;;;;9.68;8.77;;;20.00;83.70;;;;;;5026660;28;20678;-88
2021/06/22 08:25:55;;;;;;;8.60;7.80;;;20.00;83.40;;;;;;5069577;28;20216;-88
2021/06/22 08:28:21;;;;;;;9.75;8.75;;;19.90;85.50;;;;;;5078759;28;20195;-88
2021/06/22 08:30:47;;;;;;;9.25;8.40;;;20.00;85.10;;;;;;5059912;28;20191;-88
2021/06/22 08:33:13;;;;;;;8.60;7.75;;;20.00;84.60;;;;;;5068716;28;20206;-88
2021/06/22 08:35:40;;;;;;;9.93;8.32;;;20.00;84.10;;;;;;5051637;28;20189;-89
2021/06/22 08:38:08;;;;;;;9.15;8.25;;;20.00;84.90;;;;;;5078460;28;20224;-88
2021/06/22 08:40:35;;;;;;;10.40;9.25;;;20.10;84.50;;;;;;5064230;28;20181;-88
2021/06/22 08:43:01;;;;;;;9.48;8.55;;;20.10;85.10;;;;;;5058997;28;20186;-88
2021/06/22 08:45:27;;;;;;;10.55;9.55;;;20.10;84.60;;;;;;5043174;28;20191;-88
2021/06/22 08:47:52;;;;;;;9.15;8.30;;;19.90;85.00;;;;;;5046932;28;20201;-88
2021/06/22 08:50:19;;;;;;;11.65;9.70;;;20.00;84.80;;;;;;5064361;28;20220;-88
2021/06/22 08:52:45;;;;;;;10.20;9.20;;;20.10;85.50;;;;;;5059039;28;20308;-88
2021/06/22 08:55:30;;;;;;;9.60;8.65;;;20.00;85.70;;;;;;5054830;28;20192;-88
2021/06/22 08:58:10;;;;;;;8.95;8.13;;;20.10;84.30;;;;;;5070921;28;20202;-88
2021/06/22 09:00:42;;;;;;;9.57;7.70;;;20.10;85.20;;;;;;5046538;28;20316;-87
2021/06/22 09:03:16;;;;;;;8.63;7.82;;;20.10;86.20;;;;;;5045250;28;20222;-88
2021/06/22 09:05:47;;;;;;;7.60;6.90;;;20.20;86.20;;;;;;5053670;28;20664;-88
2021/06/22 09:08:19;;;;;;;7.50;6.80;;;20.20;84.60;;;;;;5042765;28;20230;-88
2021/06/22 09:10:46;;;;;;;8.60;7.90;;;20.30;83.60;;;;;;5062660;28;20185;-88
2021/06/22 09:13:17;;;;;;;8.80;7.88;;;20.30;84.80;;;;;;5057556;28;20219;-88
2021/06/22 09:15:45;;;;;;;13.40;9.65;;;20.20;83.50;;;;;;5056945;28;20189;-88
2021/06/22 09:18:27;;;;;;;9.75;8.68;;;20.10;84.20;;;;;;5059138;28;20214;-88
2021/06/22 09:21:00;;;;;;;9.02;8.23;;;20.10;85.30;;;;;;5047341;28;20200;-88
2021/06/22 09:23:29;;;;;;;9.52;8.65;;;20.10;85.50;;;;;;5061444;28;20208;-87
2021/06/22 09:26:11;;;;;;;9.00;8.20;;;20.20;84.60;;;;;;5065459;28;20195;-87
2021/06/22 09:28:37;;;;;;;9.32;8.10;;;20.20;86.30;;;;;;5054068;22;20747;-89
2021/06/22 09:31:06;;;;;;;7.93;7.22;;;20.30;83.60;;;;;;5032173;28;20182;-90
2021/06/22 09:33:53;;;;;;;9.23;7.80;;;20.00;85.10;;;;;;5033621;28;20198;-90
2021/06/22 09:36:27;;;;;;;10.68;9.15;;;20.20;86.40;;;;;;5014602;28;20214;-89
2021/06/22 09:38:58;;;;;;;10.75;9.75;;;20.20;84.10;;;;;;5045447;28;20218;-90
2021/06/22 09:41:33;;;;;;;8.20;7.45;;;20.20;83.70;;;;;;5038533;28;20696;-90
2021/06/22 09:44:16;;;;;;;9.68;8.77;;;20.20;85.50;;;;;;5055648;28;20183;-89
2021/06/22 09:46:50;;;;;;;8.75;7.90;;;20.10;85.70;;;;;;5041255;28;20209;-89
2021/06/22 09:49:17;;;;;;;10.38;9.27;;;20.20;84.70;;;;;;5044560;28;20187;-89
2021/06/22 09:51:50;;;;;;;10.63;9.52;;;20.20;86.10;;;;;;5047761;28;20240;-89
2021/06/22 09:54:18;;;;;;;10.55;9.45;;;20.10;86.60;;;;;;5034238;28;20301;-89
2021/06/22 09:57:05;;;;;;;9.15;8.35;;;20.10;86.40;;;;;;5044684;28;20215;-90
2021/06/22 09:59:54;;;;;;;10.43;9.05;;;20.10;84.60;;;;;;5035948;28;20319;-89
2021/06/22 10:02:26;;;;;;;9.43;8.63;;;20.10;86.90;;;;;;5042559;28;20187;-90
2021/06/22 10:04:54;;;;;;;9.63;8.75;;;20.20;85.10;;;;;;5034096;28;20186;-91
2021/06/22 10:07:23;;;;;;;9.88;8.98;;;20.10;86.40;;;;;;5073098;28;20289;-90
2021/06/22 10:09:57;;;;;;;10.13;9.10;;;20.10;85.70;;;;;;5038537;28;20187;-90
2021/06/22 10:12:28;;;;;;;8.63;7.82;;;20.20;86.40;;;;;;5033063;28;20214;-91
2021/06/22 10:14:57;;;;;;;9.40;8.50;;;20.20;86.50;;;;;;5046018;28;20226;-90
2021/06/22 10:17:25;;;;;;;9.20;8.30;;;20.30;86.30;;;;;;5026464;28;20219;-91
2021/06/22 10:19:56;;;;;;;9.05;8.05;;;20.20;86.80;;;;;;5035317;28;20212;-91
2021/06/22 10:22:26;;;;;;;8.13;7.43;;;20.20;84.80;;;;;;5035942;28;20188;-92
2021/06/22 10:24:52;;;;;;;8.50;7.55;;;20.20;84.20;;;;;;5040382;28;20186;-91
2021/06/22 10:27:20;;;;;;;9.43;8.63;;;20.20;86.40;;;;;;5067881;28;20560;-90
2021/06/22 10:29:47;;;;;;;8.48;7.78;;;20.10;86.50;;;;;;5038695;28;20189;-89
2021/06/22 10:32:14;;;;;;;8.88;7.97;;;20.20;86.40;;;;;;5062927;28;20184;-90
2021/06/22 10:34:55;;;;;;;8.63;7.82;;;20.50;86.50;;;;;;5049522;28;20194;-90
2021/06/22 10:37:37;;;;;;;9.13;8.27;;;20.50;86.20;;;;;;5063885;28;20218;-89
2021/06/22 10:40:05;;;;;;;8.90;8.10;;;20.70;86.30;;;;;;5053544;28;20189;-90
2021/06/22 10:42:42;;;;;;;10.00;8.82;;;20.70;83.80;;;;;;5070800;28;20180;-89
2021/06/22 10:45:09;;;;;;;10.35;9.35;;;20.70;84.20;;;;;;5043002;28;20195;-89
2021/06/22 10:47:43;;;;;;;9.52;8.73;;;20.70;85.30;;;;;;5060492;28;20214;-89
2021/06/22 10:50:24;;;;;;;10.10;9.10;;;20.60;84.80;;;;;;5037289;28;20721;-89
2021/06/22 10:52:52;;;;;;;11.13;10.02;;;20.70;85.10;;;;;;5052284;28;20177;-88
2021/06/22 10:55:30;;;;;;;10.23;9.32;;;20.60;84.50;;;;;;5039709;28;20200;-88
2021/06/22 10:58:05;;;;;;;10.52;8.93;;;20.30;85.80;;;;;;5051448;28;20207;-88
2021/06/22 11:00:38;;;;;;;11.25;10.15;;;20.20;85.10;;;;;;5039429;28;20188;-88
2021/06/22 11:03:05;;;;;;;11.20;10.15;;;20.30;86.80;;;;;;5047233;28;20182;-88
2021/06/22 11:05:34;;;;;;;11.40;10.40;;;20.30;86.50;;;;;;5039320;28;20200;-88
2021/06/22 11:08:11;;;;;;;12.13;10.93;;;20.00;86.60;;;;;;5057926;28;20217;-89
2021/06/22 11:10:55;;;;;;;11.95;10.80;;;19.80;88.10;;;;;;5051590;28;20760;-88
2021/06/22 11:13:40;;;;;;;12.05;11.05;;;19.80;88.40;;;;;;5048096;28;20189;-89
2021/06/22 11:16:19;;;;;;;12.30;11.00;;;19.90;88.50;;;;;;5038269;28;20221;-89
2021/06/22 11:18:57;;;;;;;13.07;11.90;;;19.90;88.00;;;;;;5047141;28;20220;-89
2021/06/22 11:21:28;;;;;;;12.88;10.73;;;19.80;86.90;;;;;;5043822;28;20189;-88
2021/06/22 11:24:01;;;;;;;10.48;9.57;;;20.00;88.10;;;;;;5046811;28;20189;-88
2021/06/22 11:26:44;;;;;;;11.05;9.95;;;19.90;88.50;;;;;;5023075;28;20218;-88
2021/06/22 11:29:13;;;;;;;11.00;10.00;;;20.10;88.80;;;;;;5029115;28;20205;-88
2021/06/22 11:31:53;;;;;;;10.23;9.32;;;20.10;89.00;;;;;;5037725;28;20188;-89
2021/06/22 11:34:24;;;;;;;10.30;9.35;;;20.20;87.80;;;;;;5049927;28;20202;-89
2021/06/22 11:36:54;;;;;;;11.82;10.68;;;20.30;86.80;;;;;;5047978;28;20218;-89
2021/06/22 11:39:28;;;;;;;10.60;9.60;;;20.10;87.70;;;;;;5049103;28;20281;-89
2021/06/22 11:42:12;;;;;;;10.30;9.30;;;20.30;88.10;;;;;;5033094;28;20192;-89
2021/06/22 11:44:43;;;;;;;10.00;9.10;;;20.40;86.70;;;;;;5047913;28;20180;-88
2021/06/22 11:47:30;;;;;;;9.80;8.90;;;20.30;85.10;;;;;;5059105;28;20210;-89
2021/06/22 11:50:01;;;;;;;10.20;9.30;;;20.40;86.00;;;;;;5035806;28;20765;-89
2021/06/22 11:52:37;;;;;;;9.73;8.77;;;20.40;87.60;;;;;;5049247;28;20305;-89
2021/06/22 11:55:14;;;;;;;9.75;8.90;;;20.40;86.60;;;;;;5056323;28;20222;-89
2021/06/22 11:57:41;;;;;;;11.98;10.85;;;20.50;86.70;;;;;;5054373;28;20218;-88
2021/06/22 12:00:28;;;;;;;10.90;9.75;;;20.40;88.00;;;;;;5053537;28;20687;-89
2021/06/22 12:03:00;;;;;;;9.77;8.88;;;20.40;87.70;;;;;;5070731;28;20190;-89
2021/06/22 12:05:28;;;;;;;8.00;7.30;;;20.40;86.30;;;;;;5044922;28;20276;-89
2021/06/22 12:07:59;;;;;;;9.27;8.48;;;20.50;86.00;;;;;;5046063;28;20218;-88
2021/06/22 12:10:49;;;;;;;9.65;8.85;;;20.60;86.00;;;;;;5024453;28;20665;-88
2021/06/22 12:13:33;;;;;;;9.32;8.52;;;20.60;84.80;;;;;;5037644;28;20188;-88
2021/06/22 12:16:15;;;;;;;10.00;9.10;;;20.60;86.30;;;;;;5025572;28;20220;-88
2021/06/22 12:18:41;;;;;;;9.25;8.52;;;20.60;87.50;;;;;;5036811;28;20238;-88
2021/06/22 12:21:09;;;;;;;9.27;8.48;;;20.50;88.70;;;;;;5032812;28;20199;-87
2021/06/22 12:23:35;;;;;;;9.25;8.38;;;20.60;87.10;;;;;;5022546;28;20293;-87
2021/06/22 12:26:03;;;;;;;11.38;9.27;;;20.80;86.50;;;;;;5040770;28;20208;-88
2021/06/22 12:28:35;;;;;;;9.85;8.93;;;21.10;86.80;;;;;;5032590;28;20203;-87
2021/06/22 12:31:03;;;;;;;10.38;9.38;;;21.30;85.20;;;;;;5042358;28;20217;-87
2021/06/22 12:33:35;;;;;;;9.75;8.90;;;21.20;88.50;;;;;;5065520;28;20302;-89
2021/06/22 12:36:04;;;;;;;9.30;8.60;;;21.50;88.50;;;;;;5034762;28;20215;-89
2021/06/22 12:38:30;;;;;;;9.23;8.45;;;21.80;85.70;;;;;;5033976;28;20235;-89
2021/06/22 12:41:03;;;;;;;7.07;6.20;;;22.00;84.80;;;;;;5037383;28;20181;-89
2021/06/22 12:43:50;;;;;;;8.77;7.93;;;22.00;82.60;;;;;;5050064;28;20183;-89